createdAt,value
2019-03-26T00:02:00.517Z,98.10
2019-03-26T00:04:48.956Z,98.00
2019-03-26T00:07:37.311Z,98.10
2019-03-26T00:10:25.458Z,98.00
2019-03-26T00:13:13.433Z,97.90
2019-03-26T00:16:01.781Z,97.90
2019-03-26T00:18:50.225Z,97.80
2019-03-26T00:21:39.226Z,97.80
2019-03-26T00:24:28.212Z,97.80
2019-03-26T00:27:17.161Z,97.90
2019-03-26T00:30:06.138Z,97.60
2019-03-26T00:32:54.994Z,97.70
2019-03-26T00:35:43.450Z,97.60
2019-03-26T00:38:32.261Z,97.60
2019-03-26T00:41:20.810Z,97.40
2019-03-26T00:44:09.081Z,97.40
2019-03-26T00:46:57.476Z,97.60
2019-03-26T00:49:45.693Z,97.80
2019-03-26T00:52:34.348Z,98.00
2019-03-26T00:55:23.308Z,98.10
2019-03-26T00:58:11.581Z,98.20
2019-03-26T01:00:59.803Z,97.70
2019-03-26T01:03:48.601Z,97.10
2019-03-26T01:06:37.706Z,97.30
2019-03-26T01:09:26.506Z,97.60
2019-03-26T01:12:15.351Z,97.70
2019-03-26T01:15:04.483Z,97.80
2019-03-26T01:17:52.964Z,97.50
2019-03-26T01:20:41.309Z,97.80
2019-03-26T01:23:29.484Z,97.90
2019-03-26T01:26:18.097Z,97.80
2019-03-26T01:29:06.455Z,98.00
2019-03-26T01:31:54.412Z,98.00
2019-03-26T01:34:46.258Z,98.00
2019-03-26T01:37:32.385Z,98.30
2019-03-26T01:40:20.885Z,98.30
2019-03-26T01:43:09.088Z,98.30
2019-03-26T01:45:57.224Z,98.40
2019-03-26T01:48:45.077Z,98.40
2019-03-26T01:51:33.205Z,98.80
2019-03-26T01:54:21.740Z,98.60
2019-03-26T01:57:09.801Z,98.30
2019-03-26T01:59:57.652Z,98.40
2019-03-26T02:02:45.965Z,98.10
2019-03-26T02:05:34.198Z,97.60
2019-03-26T02:08:22.552Z,97.50
2019-03-26T02:11:10.608Z,97.70
2019-03-26T02:13:58.772Z,97.70
2019-03-26T02:16:46.996Z,97.80
2019-03-26T02:19:35.452Z,98.00
2019-03-26T02:22:24.033Z,97.90
2019-03-26T02:25:12.527Z,98.00
2019-03-26T02:28:01.100Z,98.10
2019-03-26T02:30:49.730Z,98.30
2019-03-26T02:33:38.041Z,98.50
2019-03-26T02:36:26.581Z,98.60
2019-03-26T02:39:14.413Z,98.50
2019-03-26T02:42:02.934Z,98.20
2019-03-26T02:44:51.264Z,98.20
2019-03-26T02:47:39.720Z,98.40
2019-03-26T02:50:27.897Z,98.70
2019-03-26T02:53:16.306Z,98.50
2019-03-26T02:56:04.258Z,98.30
2019-03-26T02:58:52.521Z,98.30
2019-03-26T03:01:41.042Z,98.30
2019-03-26T03:04:29.184Z,98.30
2019-03-26T03:07:17.277Z,98.10
2019-03-26T03:10:06.289Z,98.10
2019-03-26T03:12:54.555Z,98.20
2019-03-26T03:15:42.799Z,98.30
2019-03-26T03:18:31.250Z,98.40
2019-03-26T03:21:19.105Z,98.50
2019-03-26T03:24:07.077Z,99.00
2019-03-26T03:26:54.873Z,98.60
2019-03-26T03:29:43.185Z,98.70
2019-03-26T03:32:31.546Z,98.60
2019-03-26T03:35:20.106Z,98.60
2019-03-26T03:38:08.158Z,98.70
2019-03-26T03:40:56.517Z,98.50
2019-03-26T03:43:44.625Z,98.60
2019-03-26T03:46:32.905Z,98.70
2019-03-26T03:49:24.819Z,98.60
2019-03-26T03:52:15.245Z,98.50
2019-03-26T03:55:03.550Z,98.50
2019-03-26T03:57:54.646Z,98.60
2019-03-26T04:00:42.787Z,98.60
2019-03-26T04:03:31.522Z,98.50
2019-03-26T04:06:19.713Z,98.60
2019-03-26T04:09:08.400Z,98.60
2019-03-26T04:11:56.772Z,98.70
2019-03-26T04:14:45.151Z,98.80
2019-03-26T04:17:33.079Z,98.60
2019-03-26T04:20:21.066Z,98.70
2019-03-26T04:23:09.334Z,98.60
2019-03-26T04:25:57.936Z,98.80
2019-03-26T04:28:46.429Z,98.90
2019-03-26T04:31:34.952Z,98.90
2019-03-26T04:34:23.608Z,99.00
2019-03-26T04:37:11.999Z,99.00
2019-03-26T04:40:00.614Z,99.00
2019-03-26T04:42:49.263Z,98.90
2019-03-26T04:45:38.063Z,99.00
2019-03-26T04:48:27.589Z,99.10
2019-03-26T04:51:15.808Z,99.20
2019-03-26T04:54:04.046Z,99.50
2019-03-26T04:56:52.395Z,99.90
2019-03-26T04:59:41.095Z,99.90
2019-03-26T05:02:29.291Z,99.90
2019-03-26T05:05:17.711Z,99.90
2019-03-26T05:08:05.560Z,99.90
2019-03-26T05:10:54.318Z,99.90
2019-03-26T05:13:42.570Z,99.90
2019-03-26T05:16:30.801Z,99.90
2019-03-26T05:19:18.687Z,99.90
2019-03-26T05:22:07.277Z,99.90
2019-03-26T05:24:55.648Z,99.70
2019-03-26T05:27:45.641Z,99.40
2019-03-26T05:30:34.184Z,99.30
2019-03-26T05:33:22.305Z,99.20
2019-03-26T05:36:10.249Z,99.00
2019-03-26T05:38:58.278Z,99.10
2019-03-26T05:41:46.841Z,99.30
2019-03-26T05:44:34.704Z,99.40
2019-03-26T05:47:23.177Z,99.40
2019-03-26T05:50:12.477Z,99.90
2019-03-26T05:53:00.881Z,99.20
2019-03-26T05:55:49.295Z,99.30
2019-03-26T05:58:37.488Z,99.20
2019-03-26T06:01:25.764Z,99.20
2019-03-26T06:04:14.324Z,99.10
2019-03-26T06:07:05.134Z,99.30
2019-03-26T06:09:52.395Z,99.40
2019-03-26T06:12:40.400Z,99.40
2019-03-26T06:15:29.081Z,99.20
2019-03-26T06:18:17.439Z,99.00
2019-03-26T06:21:05.840Z,99.20
2019-03-26T06:23:54.197Z,99.00
2019-03-26T06:26:42.660Z,98.80
2019-03-26T06:29:31.361Z,98.70
2019-03-26T06:32:19.365Z,98.40
2019-03-26T06:35:09.029Z,98.00
2019-03-26T06:37:56.997Z,97.50
2019-03-26T06:40:44.931Z,97.70
2019-03-26T06:43:33.081Z,97.70
2019-03-26T06:46:21.297Z,97.60
2019-03-26T06:49:09.308Z,97.40
2019-03-26T06:51:57.660Z,97.50
2019-03-26T06:54:46.458Z,97.40
2019-03-26T06:57:35.900Z,97.20
2019-03-26T07:00:33.800Z,97.30
2019-03-26T07:03:22.809Z,97.30
2019-03-26T07:06:10.797Z,97.70
2019-03-26T07:08:59.016Z,97.60
2019-03-26T07:11:47.241Z,97.40
2019-03-26T07:14:35.939Z,97.30
2019-03-26T07:17:24.276Z,96.90
2019-03-26T07:20:12.625Z,96.90
2019-03-26T07:23:01.274Z,96.80
2019-03-26T07:25:49.288Z,97.20
2019-03-26T07:28:37.521Z,97.00
2019-03-26T07:31:25.733Z,97.60
2019-03-26T07:34:13.932Z,97.50
2019-03-26T07:37:02.310Z,98.40
2019-03-26T07:39:50.419Z,99.50
2019-03-26T07:42:38.576Z,98.70
2019-03-26T07:45:27.066Z,98.20
2019-03-26T07:48:15.048Z,98.00
2019-03-26T07:51:03.415Z,98.30
2019-03-26T07:53:51.781Z,98.30
2019-03-26T07:56:40.262Z,97.90
2019-03-26T07:59:28.733Z,97.30
2019-03-26T08:02:16.825Z,98.50
2019-03-26T08:05:06.049Z,97.60
2019-03-26T08:07:58.511Z,97.50
2019-03-26T08:10:44.334Z,96.70
2019-03-26T08:13:32.724Z,96.20
2019-03-26T08:16:20.880Z,95.60
2019-03-26T08:19:09.115Z,95.30
2019-03-26T08:21:57.256Z,94.10
2019-03-26T08:24:45.370Z,94.10
2019-03-26T08:27:33.240Z,94.70
2019-03-26T08:30:21.962Z,94.90
2019-03-26T08:33:10.326Z,94.10
2019-03-26T08:35:58.885Z,94.70
2019-03-26T08:38:47.161Z,93.90
2019-03-26T08:41:35.837Z,93.70
2019-03-26T08:44:24.120Z,93.20
2019-03-26T08:47:12.006Z,92.70
2019-03-26T08:50:00.410Z,92.30
2019-03-26T08:52:48.845Z,93.10
2019-03-26T08:55:37.007Z,93.30
2019-03-26T08:58:26.088Z,92.70
2019-03-26T09:01:14.337Z,92.60
2019-03-26T09:04:02.859Z,93.00
2019-03-26T09:06:51.171Z,92.40
2019-03-26T09:09:39.932Z,93.40
2019-03-26T09:12:28.245Z,93.90
2019-03-26T09:15:16.922Z,94.00
2019-03-26T09:18:05.292Z,94.10
2019-03-26T09:20:53.434Z,94.30
2019-03-26T09:23:41.731Z,94.10
2019-03-26T09:26:30.017Z,94.30
2019-03-26T09:29:18.119Z,94.10
2019-03-26T09:32:06.322Z,94.10
2019-03-26T09:34:54.652Z,94.10
2019-03-26T09:37:42.602Z,94.10
2019-03-26T09:40:30.745Z,95.10
2019-03-26T09:43:18.961Z,94.90
2019-03-26T09:46:07.158Z,94.10
2019-03-26T09:48:55.368Z,94.30
2019-03-26T09:51:43.595Z,94.30
2019-03-26T09:54:31.736Z,94.40
2019-03-26T09:57:19.820Z,93.80
2019-03-26T10:00:09.703Z,93.90
2019-03-26T10:02:58.015Z,93.60
2019-03-26T10:05:46.198Z,93.90
2019-03-26T10:08:34.350Z,93.80
2019-03-26T10:11:22.862Z,94.00
2019-03-26T10:14:10.941Z,93.50
2019-03-26T10:16:59.233Z,93.30
2019-03-26T10:19:47.175Z,93.70
2019-03-26T10:22:35.769Z,93.60
2019-03-26T10:25:24.048Z,93.80
2019-03-26T10:28:12.248Z,93.20
2019-03-26T10:31:00.578Z,91.30
2019-03-26T10:33:49.123Z,91.30
2019-03-26T10:36:37.287Z,90.80
2019-03-26T10:39:25.141Z,91.20
2019-03-26T10:42:13.845Z,91.00
2019-03-26T10:45:02.022Z,90.70
2019-03-26T10:47:50.144Z,84.90
2019-03-26T10:50:38.474Z,86.30
2019-03-26T10:53:26.589Z,88.60
2019-03-26T10:56:14.674Z,85.70
2019-03-26T10:59:04.253Z,85.20
2019-03-26T11:01:52.497Z,87.30
2019-03-26T11:04:40.710Z,87.20
2019-03-26T11:07:29.064Z,87.30
2019-03-26T11:10:17.493Z,85.00
2019-03-26T11:13:05.752Z,82.50
2019-03-26T11:15:54.503Z,80.70
2019-03-26T11:18:43.086Z,80.80
2019-03-26T11:21:31.313Z,80.30
2019-03-26T11:24:19.569Z,81.80
2019-03-26T11:27:08.019Z,80.10
2019-03-26T11:29:56.460Z,80.90
2019-03-26T11:32:44.848Z,80.70
2019-03-26T11:35:33.007Z,80.40
2019-03-26T11:38:21.073Z,79.80
2019-03-26T11:41:09.096Z,81.30
2019-03-26T11:43:57.516Z,79.20
2019-03-26T11:46:45.663Z,79.30
2019-03-26T11:49:34.074Z,80.00
2019-03-26T11:52:22.597Z,78.80
2019-03-26T11:55:11.528Z,79.10
2019-03-26T11:58:00.059Z,78.60
2019-03-26T12:00:48.448Z,77.50
2019-03-26T12:03:37.033Z,78.80
2019-03-26T12:06:25.049Z,78.00
2019-03-26T12:09:13.129Z,78.60
2019-03-26T12:12:00.991Z,78.90
2019-03-26T12:14:49.300Z,76.90
2019-03-26T12:17:37.434Z,78.40
2019-03-26T12:20:25.846Z,76.80
2019-03-26T12:23:14.153Z,76.20
2019-03-26T12:26:03.027Z,76.90
2019-03-26T12:28:51.245Z,76.50
2019-03-26T12:31:39.756Z,74.60
2019-03-26T12:34:28.112Z,74.40
2019-03-26T12:37:15.983Z,75.70
2019-03-26T12:40:05.262Z,74.50
2019-03-26T12:42:53.365Z,75.10
2019-03-26T12:45:41.318Z,72.00
2019-03-26T12:48:29.365Z,73.80
2019-03-26T12:51:17.424Z,72.60
2019-03-26T12:54:05.446Z,70.80
2019-03-26T12:56:53.946Z,72.20
2019-03-26T12:59:42.045Z,71.30
2019-03-26T13:02:30.293Z,74.60
2019-03-26T13:05:18.623Z,76.60
2019-03-26T13:08:07.083Z,77.90
2019-03-26T13:10:55.331Z,78.10
2019-03-26T13:13:43.399Z,77.70
2019-03-26T13:16:31.705Z,76.20
2019-03-26T13:19:19.866Z,75.50
2019-03-26T13:22:07.998Z,73.70
2019-03-26T13:24:56.507Z,74.50
2019-03-26T13:27:44.785Z,73.70
2019-03-26T13:30:33.005Z,74.20
2019-03-26T13:33:21.247Z,70.00
2019-03-26T13:36:09.575Z,69.60
2019-03-26T13:38:57.944Z,68.10
2019-03-26T13:41:46.577Z,70.00
2019-03-26T13:44:34.877Z,68.90
2019-03-26T13:47:23.430Z,63.90
2019-03-26T13:50:13.472Z,62.30
2019-03-26T13:53:01.902Z,63.30
2019-03-26T13:55:50.221Z,65.40
2019-03-26T13:58:38.758Z,63.30
2019-03-26T14:01:27.088Z,62.70
2019-03-26T14:04:15.664Z,63.50
2019-03-26T14:07:04.469Z,64.00
2019-03-26T14:09:53.016Z,63.50
2019-03-26T14:12:41.031Z,64.80
2019-03-26T14:15:29.322Z,65.10
2019-03-26T14:18:17.204Z,67.90
2019-03-26T14:21:06.178Z,66.60
2019-03-26T14:23:54.331Z,66.10
2019-03-26T14:26:42.312Z,66.70
2019-03-26T14:29:30.429Z,67.30
2019-03-26T14:32:19.266Z,68.10
2019-03-26T14:35:07.455Z,66.30
2019-03-26T14:37:55.569Z,69.10
2019-03-26T14:40:54.008Z,67.40
2019-03-26T14:43:34.210Z,67.40
2019-03-26T14:46:22.610Z,65.50
2019-03-26T14:49:10.969Z,66.20
2019-03-26T14:51:59.073Z,65.90
2019-03-26T14:54:47.401Z,65.30
2019-03-26T14:57:35.661Z,65.20
2019-03-26T15:00:24.238Z,65.50
2019-03-26T15:03:12.521Z,65.10
2019-03-26T15:06:04.341Z,64.40
2019-03-26T15:08:50.841Z,63.20
2019-03-26T15:11:39.725Z,61.10
2019-03-26T15:14:27.787Z,61.00
2019-03-26T15:17:16.398Z,60.90
2019-03-26T15:20:05.038Z,61.70
2019-03-26T15:22:53.332Z,62.10
2019-03-26T15:25:41.789Z,61.70
2019-03-26T15:28:30.417Z,61.60
2019-03-26T15:31:18.822Z,60.00
2019-03-26T15:34:07.120Z,62.50
2019-03-26T15:36:55.708Z,60.80
2019-03-26T15:39:43.723Z,61.30
2019-03-26T15:42:31.912Z,60.80
2019-03-26T15:45:20.286Z,60.40
2019-03-26T15:48:08.732Z,61.50
2019-03-26T15:50:57.374Z,61.80
2019-03-26T15:53:46.046Z,61.90
2019-03-26T15:56:34.458Z,60.10
2019-03-26T15:59:22.560Z,60.00
2019-03-26T16:02:11.009Z,61.60
2019-03-26T16:04:59.766Z,62.80
2019-03-26T16:07:47.935Z,65.10
2019-03-26T16:10:36.441Z,64.00
2019-03-26T16:13:24.492Z,63.90
2019-03-26T16:16:13.078Z,63.90
2019-03-26T16:19:01.445Z,63.40
2019-03-26T16:21:49.604Z,64.60
2019-03-26T16:24:37.708Z,64.50
2019-03-26T16:27:25.728Z,64.60
2019-03-26T16:30:15.467Z,64.20
2019-03-26T16:33:03.932Z,63.80
2019-03-26T16:35:52.575Z,64.50
2019-03-26T16:38:40.877Z,63.20
2019-03-26T16:41:28.991Z,63.60
2019-03-26T16:44:16.925Z,63.20
2019-03-26T16:47:05.325Z,63.00
2019-03-26T16:49:53.170Z,62.90
2019-03-26T16:52:41.947Z,62.70
2019-03-26T16:55:30.266Z,62.20
2019-03-26T16:58:18.701Z,61.80
2019-03-26T17:01:07.266Z,62.40
2019-03-26T17:03:55.533Z,62.60
2019-03-26T17:06:44.185Z,62.20
2019-03-26T17:09:32.562Z,63.60
2019-03-26T17:12:20.494Z,63.00
2019-03-26T17:15:08.893Z,63.90
2019-03-26T17:17:57.022Z,66.40
2019-03-26T17:20:45.214Z,66.40
2019-03-26T17:23:33.274Z,66.60
2019-03-26T17:26:21.406Z,65.80
2019-03-26T17:29:10.019Z,65.70
2019-03-26T17:31:58.512Z,64.70
2019-03-26T17:34:47.224Z,65.50
2019-03-26T17:37:35.710Z,65.70
2019-03-26T17:40:24.004Z,66.50
2019-03-26T17:43:12.534Z,67.20
2019-03-26T17:46:00.565Z,68.60
2019-03-26T17:48:48.684Z,70.60
2019-03-26T17:51:37.096Z,72.00
2019-03-26T17:54:26.017Z,71.10
2019-03-26T17:57:14.169Z,72.60
2019-03-26T18:00:02.071Z,73.40
2019-03-26T18:02:50.532Z,74.60
2019-03-26T18:05:38.438Z,75.50
2019-03-26T18:08:26.826Z,77.00
2019-03-26T18:11:14.963Z,78.70
2019-03-26T18:14:03.664Z,80.50
2019-03-26T18:16:51.646Z,82.30
2019-03-26T18:19:40.654Z,83.30
2019-03-26T18:22:29.169Z,83.10
2019-03-26T18:25:17.384Z,83.30
2019-03-26T18:28:05.736Z,83.50
2019-03-26T18:30:53.817Z,84.00
2019-03-26T18:33:41.959Z,84.90
2019-03-26T18:36:30.305Z,85.70
2019-03-26T18:39:18.469Z,86.00
2019-03-26T18:42:07.043Z,86.40
2019-03-26T18:44:55.231Z,85.70
2019-03-26T18:47:43.672Z,85.90
2019-03-26T18:50:32.320Z,86.30
2019-03-26T18:53:20.475Z,86.30
2019-03-26T18:56:08.483Z,87.40
2019-03-26T18:58:56.485Z,87.60
2019-03-26T19:01:44.657Z,88.10
2019-03-26T19:04:33.146Z,88.70
2019-03-26T19:07:21.262Z,88.80
2019-03-26T19:10:31.407Z,88.80
2019-03-26T19:13:20.292Z,88.90
2019-03-26T19:16:09.541Z,88.60
2019-03-26T19:18:58.158Z,88.80
2019-03-26T19:21:46.652Z,88.80
2019-03-26T19:24:34.880Z,88.80
2019-03-26T19:27:23.367Z,90.00
2019-03-26T19:30:12.737Z,90.40
2019-03-26T19:33:00.865Z,90.40
2019-03-26T19:35:49.107Z,90.30
2019-03-26T19:38:37.204Z,90.40
2019-03-26T19:41:25.612Z,90.30
2019-03-26T19:44:13.728Z,90.40
2019-03-26T19:47:01.973Z,90.60
2019-03-26T19:49:50.144Z,90.60
2019-03-26T19:52:38.672Z,90.90
2019-03-26T19:55:27.515Z,90.70
2019-03-26T19:58:16.915Z,90.70
2019-03-26T20:01:04.909Z,90.70
2019-03-26T20:03:53.071Z,90.60
2019-03-26T20:06:41.425Z,90.70
2019-03-26T20:09:29.533Z,90.90
2019-03-26T20:12:17.737Z,91.00
2019-03-26T20:15:06.538Z,90.90
2019-03-26T20:17:54.689Z,90.90
2019-03-26T20:20:43.177Z,90.90
2019-03-26T20:23:31.199Z,91.00
2019-03-26T20:26:19.446Z,91.20
2019-03-26T20:29:07.416Z,92.70
2019-03-26T20:31:55.489Z,93.20
2019-03-26T20:34:43.724Z,93.70
2019-03-26T20:37:32.194Z,93.80
2019-03-26T20:40:20.448Z,94.30
2019-03-26T20:43:09.014Z,94.40
2019-03-26T20:45:57.389Z,94.30
2019-03-26T20:48:45.669Z,94.10
2019-03-26T20:51:34.131Z,94.30
2019-03-26T20:54:22.448Z,94.30
2019-03-26T20:57:11.510Z,94.10
2019-03-26T20:59:59.814Z,94.20
2019-03-26T21:02:48.482Z,94.40
2019-03-26T21:05:36.505Z,94.40
2019-03-26T21:08:24.539Z,94.60
2019-03-26T21:11:12.536Z,94.70
2019-03-26T21:14:00.638Z,94.80
2019-03-26T21:16:48.826Z,95.20
2019-03-26T21:19:37.094Z,95.40
2019-03-26T21:22:25.455Z,95.50
2019-03-26T21:25:13.681Z,95.00
2019-03-26T21:28:01.619Z,94.80
2019-03-26T21:30:49.655Z,95.10
2019-03-26T21:33:37.906Z,95.00
2019-03-26T21:36:27.430Z,94.70
2019-03-26T21:39:16.172Z,94.70
2019-03-26T21:42:04.706Z,94.90
2019-03-26T21:44:53.009Z,95.10
2019-03-26T21:47:41.416Z,95.00
2019-03-26T21:50:29.810Z,95.00
2019-03-26T21:53:18.804Z,94.80
2019-03-26T21:56:07.729Z,94.50
2019-03-26T21:58:55.709Z,94.80
2019-03-26T22:01:43.642Z,95.10
2019-03-26T22:04:31.596Z,95.30
2019-03-26T22:07:19.872Z,95.40
2019-03-26T22:10:08.374Z,95.40
2019-03-26T22:12:56.972Z,95.30
2019-03-26T22:15:45.005Z,95.50
2019-03-26T22:18:33.112Z,95.40
2019-03-26T22:21:21.026Z,95.80
2019-03-26T22:24:09.318Z,96.20
2019-03-26T22:26:57.877Z,96.40
2019-03-26T22:29:45.772Z,96.60
2019-03-26T22:32:34.006Z,96.60
2019-03-26T22:35:22.224Z,96.70
2019-03-26T22:38:10.556Z,96.60
2019-03-26T22:40:58.965Z,96.70
2019-03-26T22:43:47.254Z,96.70
2019-03-26T22:46:35.827Z,96.30
2019-03-26T22:49:24.219Z,95.00
2019-03-26T22:52:12.874Z,94.90
2019-03-26T22:55:01.424Z,95.20
2019-03-26T22:57:49.368Z,94.80
2019-03-26T23:00:38.555Z,95.00
2019-03-26T23:03:26.744Z,95.50
2019-03-26T23:06:14.966Z,95.60
2019-03-26T23:09:04.232Z,95.80
2019-03-26T23:11:52.800Z,95.80
2019-03-26T23:14:45.276Z,96.10
2019-03-26T23:17:31.473Z,96.30
2019-03-26T23:20:19.770Z,96.20
2019-03-26T23:23:07.954Z,96.20
2019-03-26T23:25:56.687Z,96.20
2019-03-26T23:28:46.007Z,96.20
2019-03-26T23:31:34.318Z,96.70
2019-03-26T23:34:22.466Z,96.70
2019-03-26T23:37:10.516Z,96.70
2019-03-26T23:39:59.119Z,96.50
2019-03-26T23:42:47.620Z,96.40
2019-03-26T23:45:35.540Z,96.60
2019-03-26T23:48:23.703Z,96.70
2019-03-26T23:51:12.241Z,97.00
2019-03-26T23:54:00.612Z,96.70
2019-03-26T23:56:49.839Z,96.90
2019-03-26T23:59:37.877Z,97.00
